Time;durP1;ratioP1;P1;durP2;ratioP2;P2;SDS_P1;SDS_P2;PMS_P1;PMS_P2;Temp;Humidity;BMP_temperature;BMP_pressure;BME280_temperature;BME280_humidity;BME280_pressure;Samples;Min_cycle;Max_cycle;Signal;HPM_P1;HPM_P2
2021/12/30 00:00:33;;;;;;;0.60;0.60;;;19.80;53.70;;;;;;5032370;28;20411;-69
2021/12/30 00:02:59;;;;;;;0.90;0.70;;;19.70;53.70;;;;;;5032156;28;20406;-69
2021/12/30 00:05:25;;;;;;;0.50;0.50;;;19.80;53.80;;;;;;5031923;28;20948;-68
2021/12/30 00:07:51;;;;;;;0.60;0.57;;;20.00;53.90;;;;;;5032082;28;20521;-68
2021/12/30 00:10:17;;;;;;;0.60;0.50;;;20.00;53.90;;;;;;5031778;28;20259;-68
2021/12/30 00:12:43;;;;;;;0.70;0.50;;;19.70;53.80;;;;;;5047359;28;20990;-69
2021/12/30 00:15:10;;;;;;;0.63;0.63;;;20.10;54.00;;;;;;5051507;28;20192;-69
2021/12/30 00:17:35;;;;;;;0.50;0.50;;;19.70;53.80;;;;;;5051727;28;20183;-69
2021/12/30 00:20:04;;;;;;;0.60;0.60;;;19.70;53.80;;;;;;5051355;28;20410;-69
2021/12/30 00:22:30;;;;;;;0.50;0.40;;;19.70;53.80;;;;;;5051324;28;20871;-69
2021/12/30 00:24:55;;;;;;;0.50;0.50;;;19.70;53.80;;;;;;5051285;28;20434;-69
2021/12/30 00:27:21;;;;;;;1.53;0.83;;;19.70;53.80;;;;;;5051465;28;20180;-69
2021/12/30 00:29:46;;;;;;;0.70;0.70;;;19.00;53.40;;;;;;5051493;28;20526;-69
2021/12/30 00:32:12;;;;;;;0.80;0.80;;;19.70;53.80;;;;;;5051279;28;20562;-69
2021/12/30 00:34:37;;;;;;;0.70;0.70;;;19.70;53.90;;;;;;5051059;28;20192;-69
2021/12/30 00:37:03;;;;;;;0.60;0.50;;;19.70;53.90;;;;;;5051146;28;20172;-69
2021/12/30 00:39:29;;;;;;;0.83;0.83;;;19.70;53.80;;;;;;5050973;28;20661;-69
2021/12/30 00:41:54;;;;;;;1.00;1.00;;;19.80;53.90;;;;;;5051144;28;20171;-69
2021/12/30 00:44:20;;;;;;;0.83;0.60;;;19.70;53.80;;;;;;5050950;28;20228;-69
2021/12/30 00:46:46;;;;;;;0.60;0.60;;;19.60;53.80;;;;;;5051006;28;20300;-69
2021/12/30 00:49:13;;;;;;;0.50;0.40;;;20.20;54.20;;;;;;5050999;28;20182;-69
2021/12/30 00:51:39;;;;;;;0.60;0.60;;;20.00;54.00;;;;;;5049532;28;20223;-69
2021/12/30 00:54:04;;;;;;;0.50;0.50;;;19.70;53.90;;;;;;5050791;28;20430;-69
2021/12/30 00:56:30;;;;;;;0.50;0.50;;;19.70;53.90;;;;;;5031723;28;20573;-69
2021/12/30 00:58:56;;;;;;;0.60;0.60;;;19.70;53.90;;;;;;5031087;28;20246;-69
2021/12/30 01:01:22;;;;;;;0.50;0.50;;;19.60;53.90;;;;;;5031042;28;20499;-69
2021/12/30 01:03:48;;;;;;;0.50;0.50;;;19.90;65.60;;;;;;5030600;28;20251;-69
2021/12/30 01:06:14;;;;;;;0.77;0.70;;;19.70;53.90;;;;;;5030998;28;20550;-69
2021/12/30 01:08:39;;;;;;;0.50;0.47;;;19.70;53.90;;;;;;5031013;28;20450;-69
2021/12/30 01:11:08;;;;;;;0.60;0.60;;;19.70;53.90;;;;;;5033361;28;20191;-69
2021/12/30 01:13:39;;;;;;;0.50;0.50;;;20.60;65.10;;;;;;5050607;28;20291;-69
2021/12/30 01:16:15;;;;;;;1.00;1.00;;;19.70;54.00;;;;;;5050558;28;20989;-69
2021/12/30 01:18:55;;;;;;;0.50;0.40;;;19.70;54.00;;;;;;5049192;28;20493;-69
2021/12/30 01:21:23;;;;;;;0.60;0.60;;;19.70;54.00;;;;;;5050657;28;20421;-69
2021/12/30 01:23:49;;;;;;;0.50;0.50;;;19.70;65.10;;;;;;5050109;28;20439;-69
2021/12/30 01:26:14;;;;;;;0.50;0.50;;;19.50;53.90;;;;;;5050497;28;20857;-69
2021/12/30 01:28:40;;;;;;;0.70;0.70;;;20.00;54.10;;;;;;5050463;28;20223;-69
2021/12/30 01:31:06;;;;;;;0.50;0.50;;;19.70;54.00;;;;;;5050572;28;20194;-69
2021/12/30 01:33:32;;;;;;;0.73;0.60;;;19.70;54.00;;;;;;5050532;28;20895;-69
2021/12/30 01:35:58;;;;;;;0.60;0.60;;;19.60;53.90;;;;;;5050142;28;21136;-69
2021/12/30 01:38:24;;;;;;;0.50;0.50;;;19.60;54.00;;;;;;5050147;28;20865;-69
2021/12/30 01:40:52;;;;;;;0.70;0.70;;;19.60;54.10;;;;;;5050083;28;20406;-69
2021/12/30 01:43:18;;;;;;;0.50;0.47;;;19.70;54.10;;;;;;5049914;28;20253;-69
2021/12/30 01:45:45;;;;;;;0.50;0.50;;;19.90;54.10;;;;;;5049929;28;20471;-69
2021/12/30 01:48:12;;;;;;;0.70;0.70;;;19.60;54.00;;;;;;5049909;28;20429;-69
2021/12/30 01:50:38;;;;;;;0.50;0.50;;;19.60;54.00;;;;;;5049838;28;20437;-69
2021/12/30 01:53:04;;;;;;;0.50;0.40;;;19.80;54.10;;;;;;5049765;28;20525;-69
2021/12/30 01:55:32;;;;;;;0.50;0.40;;;19.60;54.00;;;;;;5038744;28;21019;-69
2021/12/30 01:57:58;;;;;;;0.50;0.40;;;19.60;54.00;;;;;;5029360;28;20403;-70
2021/12/30 02:00:25;;;;;;;0.50;0.50;;;19.60;54.00;;;;;;5029967;28;20412;-69
2021/12/30 02:02:51;;;;;;;0.50;0.50;;;19.80;54.10;;;;;;5029683;28;20438;-69
2021/12/30 02:05:17;;;;;;;0.50;0.40;;;19.70;54.00;;;;;;5029731;28;20523;-69
2021/12/30 02:07:43;;;;;;;0.70;0.70;;;19.90;54.20;;;;;;5029736;28;20606;-69
2021/12/30 02:10:12;;;;;;;0.50;0.50;;;19.60;54.00;;;;;;5029711;28;20188;-69
2021/12/30 02:12:39;;;;;;;0.50;0.50;;;19.60;54.10;;;;;;5044333;28;20832;-69
2021/12/30 02:15:08;;;;;;;0.63;0.63;;;19.70;54.10;;;;;;5049447;28;20446;-69
2021/12/30 02:17:34;;;;;;;0.50;0.40;;;19.60;54.00;;;;;;5049577;28;20421;-69
2021/12/30 02:20:03;;;;;;;0.50;0.47;;;19.60;54.00;;;;;;5049468;28;20774;-69
2021/12/30 02:22:29;;;;;;;0.50;0.40;;;19.60;54.00;;;;;;5049142;28;20307;-69
2021/12/30 02:24:56;;;;;;;0.50;0.40;;;19.60;54.00;;;;;;5049073;28;20430;-69
2021/12/30 02:27:21;;;;;;;0.50;0.40;;;19.70;54.10;;;;;;5049356;28;20171;-69
2021/12/30 02:29:47;;;;;;;0.80;0.60;;;19.90;54.20;;;;;;5049375;28;20938;-69
2021/12/30 02:32:14;;;;;;;0.50;0.50;;;19.60;54.00;;;;;;5049188;28;20277;-69
2021/12/30 02:34:39;;;;;;;0.50;0.50;;;19.60;54.00;;;;;;5049139;28;20192;-69
2021/12/30 02:37:07;;;;;;;0.50;0.50;;;19.90;54.20;;;;;;5049049;28;20580;-69
2021/12/30 02:39:33;;;;;;;0.60;0.60;;;20.20;54.40;;;;;;5048943;28;20522;-69
2021/12/30 02:41:59;;;;;;;0.50;0.40;;;19.80;54.10;;;;;;5048953;28;20441;-69
2021/12/30 02:44:26;;;;;;;0.50;0.50;;;19.90;54.20;;;;;;5048814;28;20438;-69
2021/12/30 02:46:55;;;;;;;0.60;0.53;;;19.60;54.10;;;;;;5049013;28;20186;-69
2021/12/30 02:49:21;;;;;;;0.50;0.40;;;20.60;54.60;;;;;;5048833;28;20489;-69
2021/12/30 02:51:47;;;;;;;0.60;0.60;;;19.70;54.10;;;;;;5048633;28;20468;-69
2021/12/30 02:54:12;;;;;;;0.40;0.40;;;19.60;54.10;;;;;;5047990;28;20203;-69
2021/12/30 02:56:39;;;;;;;0.97;0.60;;;19.70;54.20;;;;;;5027559;28;20484;-69
2021/12/30 02:59:05;;;;;;;0.50;0.50;;;19.70;54.10;;;;;;5028823;28;20676;-69
2021/12/30 03:01:32;;;;;;;0.50;0.47;;;19.60;54.10;;;;;;5029339;28;20411;-69
2021/12/30 03:04:02;;;;;;;0.50;0.50;;;19.60;54.00;;;;;;5028806;28;20196;-69
2021/12/30 03:06:29;;;;;;;0.50;0.40;;;19.60;54.10;;;;;;5028918;28;20596;-69
2021/12/30 03:08:56;;;;;;;0.50;0.43;;;19.60;54.10;;;;;;5028061;28;20423;-69
2021/12/30 03:11:23;;;;;;;0.50;0.50;;;19.60;54.10;;;;;;5032832;28;20446;-69
2021/12/30 03:13:49;;;;;;;0.67;0.67;;;19.60;65.10;;;;;;5048442;28;20472;-69
2021/12/30 03:16:19;;;;;;;0.50;0.40;;;19.60;54.10;;;;;;5048450;28;21005;-69
2021/12/30 03:18:47;;;;;;;0.53;0.53;;;19.60;54.10;;;;;;5048656;28;20899;-69
2021/12/30 03:21:14;;;;;;;0.50;0.50;;;19.80;54.20;;;;;;5048384;28;20420;-69
2021/12/30 03:23:41;;;;;;;0.50;0.40;;;19.80;62.10;;;;;;5048194;28;20843;-69
2021/12/30 03:26:08;;;;;;;0.50;0.40;;;19.60;54.10;;;;;;5048498;28;20880;-69
2021/12/30 03:28:35;;;;;;;0.50;0.50;;;19.60;54.10;;;;;;5048476;28;20526;-69
2021/12/30 03:31:00;;;;;;;0.67;0.67;;;19.70;54.10;;;;;;5048527;28;20450;-69
2021/12/30 03:33:31;;;;;;;0.50;0.47;;;19.60;54.10;;;;;;5048466;28;20450;-69
2021/12/30 03:36:01;;;;;;;0.57;0.57;;;19.60;54.10;;;;;;5048118;28;20659;-69
2021/12/30 03:38:29;;;;;;;0.50;0.40;;;19.50;54.10;;;;;;5048384;28;20475;-69
2021/12/30 03:40:54;;;;;;;0.50;0.50;;;19.60;54.10;;;;;;5048299;28;20421;-69
2021/12/30 03:43:20;;;;;;;0.83;0.50;;;19.50;54.00;;;;;;5048073;28;20823;-69
2021/12/30 03:45:46;;;;;;;0.50;0.50;;;19.60;54.10;;;;;;5048052;28;20222;-69
2021/12/30 03:48:11;;;;;;;0.60;0.60;;;20.80;54.80;;;;;;5048067;28;20203;-69
2021/12/30 03:50:43;;;;;;;0.80;0.80;;;19.80;54.20;;;;;;5047932;28;20292;-69
2021/12/30 03:53:12;;;;;;;0.50;0.47;;;19.90;54.30;;;;;;5047789;28;20195;-69
2021/12/30 03:55:37;;;;;;;0.60;0.60;;;19.60;54.20;;;;;;5035868;28;20458;-69
2021/12/30 03:58:03;;;;;;;0.40;0.40;;;19.60;54.20;;;;;;5026814;28;21007;-69
2021/12/30 04:00:30;;;;;;;0.50;0.50;;;19.50;54.10;;;;;;5028288;28;20645;-69
2021/12/30 04:02:56;;;;;;;0.50;0.50;;;19.60;54.10;;;;;;5028083;28;20415;-69
2021/12/30 04:05:22;;;;;;;0.50;0.50;;;19.50;54.10;;;;;;5028176;28;20442;-69
2021/12/30 04:07:48;;;;;;;0.73;0.50;;;19.50;54.10;;;;;;5028542;28;20185;-69
2021/12/30 04:10:16;;;;;;;0.63;0.50;;;19.60;54.20;;;;;;5028640;28;20438;-69
2021/12/30 04:12:43;;;;;;;3.27;0.50;;;19.60;54.20;;;;;;5043317;28;20191;-69
2021/12/30 04:15:09;;;;;;;0.50;0.50;;;19.70;54.20;;;;;;5047797;28;20522;-69
2021/12/30 04:17:35;;;;;;;0.60;0.50;;;19.60;54.30;;;;;;5038434;28;20457;-69
2021/12/30 04:20:02;;;;;;;0.50;0.40;;;19.60;54.30;;;;;;5027414;28;20927;-69
2021/12/30 04:22:28;;;;;;;0.50;0.50;;;19.60;54.30;;;;;;5026677;28;20177;-69
2021/12/30 04:24:53;;;;;;;0.50;0.50;;;19.60;54.30;;;;;;5031652;28;20423;-69
2021/12/30 04:27:19;;;;;;;0.50;0.50;;;19.50;54.20;;;;;;5026360;28;20209;-69
2021/12/30 04:29:44;;;;;;;0.50;0.50;;;19.50;54.20;;;;;;5031615;28;20264;-69
2021/12/30 04:32:10;;;;;;;0.50;0.40;;;19.60;54.30;;;;;;5031328;28;20165;-69
2021/12/30 04:34:36;;;;;;;0.67;0.50;;;19.60;54.30;;;;;;5031537;28;20369;-69
2021/12/30 04:37:02;;;;;;;0.60;0.50;;;19.60;54.30;;;;;;5031432;28;20467;-69
2021/12/30 04:39:31;;;;;;;0.50;0.50;;;19.60;54.30;;;;;;5031445;28;20931;-69
2021/12/30 04:42:03;;;;;;;0.50;0.50;;;19.50;54.30;;;;;;5031473;28;20614;-69
2021/12/30 04:44:30;;;;;;;0.60;0.50;;;19.60;54.30;;;;;;5031172;28;20462;-69
2021/12/30 04:46:57;;;;;;;0.50;0.50;;;19.60;54.30;;;;;;5031351;28;20427;-69
2021/12/30 04:49:24;;;;;;;0.50;0.40;;;19.90;54.50;;;;;;5031188;28;20426;-69
2021/12/30 04:51:50;;;;;;;0.50;0.40;;;19.50;54.30;;;;;;5031135;28;20427;-69
2021/12/30 04:54:16;;;;;;;0.50;0.40;;;19.50;54.30;;;;;;5030883;28;20454;-69
2021/12/30 04:56:42;;;;;;;0.40;0.40;;;19.60;54.40;;;;;;5031193;28;20857;-69
2021/12/30 04:59:08;;;;;;;0.60;0.50;;;19.50;54.30;;;;;;5031023;28;20501;-69
2021/12/30 05:01:33;;;;;;;0.50;0.50;;;19.50;54.40;;;;;;5031003;28;20457;-69
2021/12/30 05:03:59;;;;;;;0.50;0.50;;;19.50;54.40;;;;;;5030738;28;20219;-69
2021/12/30 05:06:24;;;;;;;0.50;0.50;;;19.50;54.40;;;;;;5030882;28;20231;-69
2021/12/30 05:08:50;;;;;;;0.50;0.50;;;19.50;54.30;;;;;;5030805;28;20264;-69
2021/12/30 05:11:16;;;;;;;0.50;0.50;;;19.60;54.40;;;;;;5034273;28;20167;-69
2021/12/30 05:13:41;;;;;;;0.50;0.40;;;19.50;61.80;;;;;;5050351;28;20292;-69
2021/12/30 05:16:07;;;;;;;0.53;0.50;;;19.60;54.50;;;;;;5050554;28;20282;-69
2021/12/30 05:18:33;;;;;;;0.50;0.50;;;19.60;54.50;;;;;;5050624;28;20195;-69
2021/12/30 05:21:01;;;;;;;0.50;0.50;;;19.50;54.50;;;;;;5050786;28;20241;-69
2021/12/30 05:23:28;;;;;;;0.50;0.50;;;19.50;54.50;;;;;;5050515;28;20413;-69
2021/12/30 05:25:54;;;;;;;0.70;0.50;;;19.50;54.50;;;;;;5050611;28;20418;-69
2021/12/30 05:28:19;;;;;;;0.53;0.53;;;19.50;54.60;;;;;;5050537;28;20418;-69
2021/12/30 05:30:45;;;;;;;0.50;0.40;;;19.50;54.60;;;;;;5050822;28;20194;-69
2021/12/30 05:33:11;;;;;;;0.70;0.40;;;19.50;54.60;;;;;;5047951;28;20176;-69
2021/12/30 05:35:37;;;;;;;0.50;0.50;;;19.60;54.50;;;;;;5050354;28;20493;-69
2021/12/30 05:38:03;;;;;;;0.50;0.40;;;19.60;54.60;;;;;;5050354;28;20203;-69
2021/12/30 05:40:30;;;;;;;0.50;0.50;;;19.50;54.50;;;;;;5050280;28;20398;-69
2021/12/30 05:42:56;;;;;;;0.50;0.50;;;19.60;54.60;;;;;;5050116;28;20410;-69
2021/12/30 05:45:22;;;;;;;0.50;0.50;;;19.80;54.70;;;;;;5050087;28;20465;-69
2021/12/30 05:47:49;;;;;;;0.80;0.50;;;19.90;54.70;;;;;;5050197;28;20200;-69
2021/12/30 05:50:18;;;;;;;0.50;0.40;;;19.50;54.50;;;;;;5049980;28;20418;-69
2021/12/30 05:52:44;;;;;;;0.50;0.50;;;19.50;54.60;;;;;;5049695;28;20751;-69
2021/12/30 05:55:10;;;;;;;0.50;0.40;;;19.50;54.60;;;;;;5041615;28;20566;-69
2021/12/30 05:57:35;;;;;;;0.50;0.40;;;19.50;54.60;;;;;;5030032;28;20495;-69
2021/12/30 06:00:03;;;;;;;0.50;0.40;;;19.50;54.60;;;;;;5029944;28;20180;-69
2021/12/30 06:02:28;;;;;;;0.50;0.40;;;19.50;54.60;;;;;;5029630;28;20173;-69
2021/12/30 06:04:54;;;;;;;0.50;0.50;;;19.10;54.40;;;;;;5029749;28;20990;-69
2021/12/30 06:07:19;;;;;;;0.50;0.40;;;19.50;54.60;;;;;;5029874;28;20837;-69
2021/12/30 06:09:46;;;;;;;0.47;0.40;;;19.80;54.80;;;;;;5029827;28;20516;-69
2021/12/30 06:12:11;;;;;;;0.50;0.50;;;19.50;54.60;;;;;;5040701;28;20199;-69
2021/12/30 06:14:37;;;;;;;0.50;0.50;;;19.50;54.60;;;;;;5049507;28;20989;-69
2021/12/30 06:17:03;;;;;;;0.60;0.60;;;19.60;54.80;;;;;;5049701;28;20545;-69
2021/12/30 06:19:28;;;;;;;1.97;0.77;;;20.00;54.90;;;;;;5049613;28;20168;-69
2021/12/30 06:21:54;;;;;;;0.50;0.47;;;19.50;54.70;;;;;;5049566;28;20939;-69
2021/12/30 06:24:19;;;;;;;0.50;0.50;;;19.50;54.70;;;;;;5049502;28;20204;-69
2021/12/30 06:26:45;;;;;;;0.50;0.50;;;19.50;55.00;;;;;;5049471;28;20184;-69
2021/12/30 06:29:11;;;;;;;0.43;0.40;;;19.60;54.80;;;;;;5049570;28;20198;-69
2021/12/30 06:31:38;;;;;;;0.50;0.50;;;19.70;54.80;;;;;;5049380;28;20196;-69
2021/12/30 06:34:03;;;;;;;0.50;0.50;;;19.50;54.70;;;;;;5049093;28;20212;-69
2021/12/30 06:36:29;;;;;;;0.70;0.50;;;19.70;54.90;;;;;;5031574;28;20480;-69
2021/12/30 06:38:56;;;;;;;0.50;0.40;;;20.00;55.00;;;;;;5029122;28;20260;-69
2021/12/30 06:41:21;;;;;;;0.50;0.40;;;19.50;54.70;;;;;;5023909;28;20505;-69
2021/12/30 06:43:47;;;;;;;0.50;0.50;;;19.80;66.50;;;;;;5027086;28;20506;-69
2021/12/30 06:46:14;;;;;;;0.50;0.50;;;19.50;54.70;;;;;;5029092;28;20287;-69
2021/12/30 06:48:44;;;;;;;0.50;0.40;;;19.50;54.70;;;;;;5029253;28;20423;-69
2021/12/30 06:51:11;;;;;;;0.50;0.50;;;19.50;54.70;;;;;;5029130;28;20749;-69
2021/12/30 06:53:37;;;;;;;0.40;0.40;;;19.80;65.40;;;;;;5028690;28;20450;-68
2021/12/30 06:56:03;;;;;;;0.50;0.50;;;19.50;54.70;;;;;;5028949;28;20787;-69
2021/12/30 06:58:29;;;;;;;0.50;0.40;;;19.50;54.70;;;;;;5029224;28;20277;-69
2021/12/30 07:00:54;;;;;;;0.70;0.50;;;19.70;54.80;;;;;;5029071;28;20235;-69
2021/12/30 07:03:20;;;;;;;1.47;0.60;;;19.50;54.80;;;;;;5028695;28;20407;-69
2021/12/30 07:05:46;;;;;;;0.50;0.40;;;19.50;54.70;;;;;;5028759;28;20189;-69
2021/12/30 07:08:11;;;;;;;0.50;0.40;;;19.50;54.80;;;;;;5027431;28;20760;-69
2021/12/30 07:10:37;;;;;;;0.50;0.40;;;19.80;54.90;;;;;;5027028;28;20211;-69
2021/12/30 07:13:02;;;;;;;0.50;0.40;;;19.70;54.90;;;;;;5046772;28;20206;-69
2021/12/30 07:15:28;;;;;;;0.40;0.40;;;19.50;54.80;;;;;;5048378;28;20341;-68
2021/12/30 07:17:53;;;;;;;0.50;0.40;;;19.50;54.70;;;;;;5048782;28;20194;-69
2021/12/30 07:20:19;;;;;;;1.37;0.40;;;19.50;54.70;;;;;;5048618;28;20573;-69
2021/12/30 07:22:45;;;;;;;0.50;0.40;;;19.70;54.90;;;;;;5048510;28;20172;-68
2021/12/30 07:25:16;;;;;;;0.50;0.47;;;19.60;54.90;;;;;;5048344;28;20192;-68
2021/12/30 07:27:43;;;;;;;0.50;0.40;;;19.60;54.80;;;;;;5048709;28;20156;-68
2021/12/30 07:30:10;;;;;;;0.50;0.40;;;19.50;54.70;;;;;;5033874;28;20431;-68
2021/12/30 07:32:35;;;;;;;0.50;0.40;;;19.60;54.80;;;;;;5028157;28;20498;-68
2021/12/30 07:35:02;;;;;;;0.50;0.50;;;19.50;54.80;;;;;;5022916;28;20462;-68
2021/12/30 07:37:27;;;;;;;0.50;0.40;;;19.50;54.80;;;;;;5028351;28;20708;-68
2021/12/30 07:39:53;;;;;;;0.50;0.40;;;19.50;54.80;;;;;;5026961;28;20505;-68
2021/12/30 07:42:18;;;;;;;0.50;0.40;;;19.70;54.90;;;;;;5028254;28;20601;-68
2021/12/30 07:44:44;;;;;;;0.50;0.40;;;19.50;54.80;;;;;;5028614;28;20193;-68
2021/12/30 07:47:09;;;;;;;1.07;0.60;;;19.80;55.00;;;;;;5028613;28;20180;-68
2021/12/30 07:49:38;;;;;;;0.70;0.70;;;19.60;54.90;;;;;;5028452;28;20181;-68
2021/12/30 07:52:04;;;;;;;0.50;0.40;;;19.70;55.50;;;;;;5027941;28;20271;-68
2021/12/30 07:54:30;;;;;;;0.67;0.67;;;19.60;54.90;;;;;;5028067;28;20539;-68
2021/12/30 07:56:56;;;;;;;0.50;0.40;;;19.60;54.90;;;;;;5031208;28;20459;-68
2021/12/30 07:59:22;;;;;;;0.50;0.40;;;19.80;55.00;;;;;;5032164;28;20696;-68
2021/12/30 08:01:48;;;;;;;0.50;0.43;;;19.60;54.90;;;;;;5032185;28;20169;-68
2021/12/30 08:04:13;;;;;;;0.50;0.40;;;19.50;54.90;;;;;;5031950;28;20295;-68
2021/12/30 08:06:39;;;;;;;0.50;0.40;;;19.60;54.90;;;;;;5032112;28;20635;-68
2021/12/30 08:09:06;;;;;;;0.40;0.40;;;19.50;54.90;;;;;;5032309;28;20172;-68
2021/12/30 08:11:32;;;;;;;0.50;0.40;;;19.60;54.90;;;;;;5037856;28;20614;-68
2021/12/30 08:13:59;;;;;;;0.50;0.47;;;19.80;55.10;;;;;;5051783;28;20438;-68
2021/12/30 08:16:25;;;;;;;0.50;0.40;;;20.00;55.80;;;;;;5050269;28;20472;-68
2021/12/30 08:18:51;;;;;;;1.90;0.60;;;19.60;54.90;;;;;;5051876;28;20447;-68
2021/12/30 08:21:19;;;;;;;0.60;0.60;;;19.60;54.90;;;;;;5051606;28;20789;-68
2021/12/30 08:23:46;;;;;;;0.50;0.50;;;19.20;66.30;;;;;;5051432;28;20171;-68
2021/12/30 08:26:11;;;;;;;0.50;0.40;;;19.60;55.00;;;;;;5051565;28;20743;-68
2021/12/30 08:28:37;;;;;;;0.50;0.40;;;19.60;55.00;;;;;;5051461;28;20457;-68
2021/12/30 08:31:03;;;;;;;0.50;0.50;;;19.50;55.00;;;;;;5051490;28;20229;-68
2021/12/30 08:33:29;;;;;;;0.50;0.40;;;19.60;55.10;;;;;;5051309;28;20589;-68
2021/12/30 08:35:54;;;;;;;0.50;0.40;;;19.60;55.00;;;;;;5051150;28;20247;-68
2021/12/30 08:38:20;;;;;;;0.50;0.50;;;19.70;55.10;;;;;;5051579;28;20508;-68
2021/12/30 08:40:47;;;;;;;0.50;0.40;;;19.60;55.00;;;;;;5051466;28;20168;-68
2021/12/30 08:43:14;;;;;;;0.50;0.50;;;19.70;55.10;;;;;;5051431;28;20180;-68
2021/12/30 08:45:40;;;;;;;0.50;0.50;;;19.60;55.00;;;;;;5051256;28;20425;-68
2021/12/30 08:48:06;;;;;;;0.53;0.53;;;18.50;54.50;;;;;;5051263;28;20425;-68
2021/12/30 08:50:32;;;;;;;0.50;0.50;;;19.60;55.10;;;;;;5050964;28;20403;-68
2021/12/30 08:52:58;;;;;;;0.50;0.50;;;19.50;55.00;;;;;;5050885;28;20434;-68
2021/12/30 08:55:24;;;;;;;0.50;0.50;;;19.50;55.10;;;;;;5040683;28;20967;-68
2021/12/30 08:57:50;;;;;;;0.50;0.40;;;19.50;55.00;;;;;;5031051;28;20172;-68
2021/12/30 09:00:18;;;;;;;0.57;0.50;;;19.50;55.10;;;;;;5030834;28;20635;-68
2021/12/30 09:02:44;;;;;;;0.50;0.40;;;19.60;55.20;;;;;;5030745;28;20408;-68
2021/12/30 09:05:10;;;;;;;2.00;0.50;;;19.60;55.30;;;;;;5030775;28;20437;-68
2021/12/30 09:07:37;;;;;;;0.50;0.40;;;19.60;55.20;;;;;;5030152;28;20407;-68
2021/12/30 09:10:08;;;;;;;0.43;0.40;;;19.60;55.10;;;;;;5031471;28;20407;-68
2021/12/30 09:12:34;;;;;;;0.50;0.40;;;19.60;55.20;;;;;;5045213;28;20543;-68
2021/12/30 09:14:59;;;;;;;1.00;0.40;;;19.60;55.20;;;;;;5050969;28;20987;-68
2021/12/30 09:17:25;;;;;;;0.50;0.40;;;19.60;55.20;;;;;;5050640;28;20704;-69
2021/12/30 09:19:51;;;;;;;0.50;0.50;;;19.60;55.30;;;;;;5050778;28;20195;-69
2021/12/30 09:22:16;;;;;;;0.50;0.40;;;19.60;55.20;;;;;;5050538;28;20226;-69
2021/12/30 09:24:42;;;;;;;0.50;0.50;;;19.60;55.20;;;;;;5050659;28;20549;-69
2021/12/30 09:27:08;;;;;;;0.50;0.40;;;19.60;55.20;;;;;;5050609;28;20214;-69
2021/12/30 09:29:34;;;;;;;0.50;0.43;;;19.70;55.30;;;;;;5050570;28;20179;-69
2021/12/30 09:31:59;;;;;;;0.50;0.43;;;19.60;55.80;;;;;;5050180;28;20317;-69
2021/12/30 09:34:25;;;;;;;0.50;0.50;;;19.60;55.20;;;;;;5050197;28;20305;-69
2021/12/30 09:36:51;;;;;;;0.40;0.40;;;19.60;55.20;;;;;;5050515;28;20245;-69
2021/12/30 09:39:17;;;;;;;0.50;0.40;;;19.60;55.20;;;;;;5050610;28;20866;-69
2021/12/30 09:41:44;;;;;;;0.60;0.60;;;19.60;55.20;;;;;;5050506;28;20172;-69
2021/12/30 09:44:12;;;;;;;0.50;0.40;;;19.60;55.20;;;;;;5050426;28;20187;-69
2021/12/30 09:46:38;;;;;;;0.40;0.40;;;19.60;55.20;;;;;;5050106;28;20440;-69
2021/12/30 09:49:06;;;;;;;0.50;0.40;;;19.70;55.30;;;;;;5050231;28;20468;-69
2021/12/30 09:51:32;;;;;;;0.50;0.40;;;19.60;55.20;;;;;;5049992;28;20561;-69
2021/12/30 09:53:58;;;;;;;0.50;0.40;;;19.60;55.20;;;;;;5049727;28;20460;-69
2021/12/30 09:56:24;;;;;;;0.50;0.50;;;19.60;55.30;;;;;;5031537;28;20457;-69
2021/12/30 09:58:50;;;;;;;0.50;0.40;;;19.70;55.30;;;;;;5030113;28;20407;-69
2021/12/30 10:01:15;;;;;;;0.50;0.50;;;19.80;55.40;;;;;;5028425;28;20187;-69
2021/12/30 10:03:42;;;;;;;0.60;0.60;;;21.10;67.60;;;;;;5029834;28;20192;-69
2021/12/30 10:06:13;;;;;;;0.50;0.50;;;19.60;55.20;;;;;;5029940;28;20256;-69
2021/12/30 10:08:42;;;;;;;0.50;0.40;;;19.60;55.20;;;;;;5030098;28;20430;-69
2021/12/30 10:11:13;;;;;;;0.50;0.40;;;19.50;55.20;;;;;;5032389;28;20423;-69
2021/12/30 10:13:47;;;;;;;0.40;0.40;;;19.40;64.40;;;;;;5048169;28;20410;-69
2021/12/30 10:16:15;;;;;;;0.53;0.53;;;19.70;55.40;;;;;;5049630;28;21021;-69
2021/12/30 10:18:45;;;;;;;0.50;0.50;;;19.70;55.30;;;;;;5049164;28;20406;-69
2021/12/30 10:21:13;;;;;;;0.57;0.50;;;19.50;55.20;;;;;;5049305;28;20839;-69
2021/12/30 10:23:43;;;;;;;0.50;0.40;;;19.60;67.00;;;;;;5049048;28;20407;-69
2021/12/30 10:26:09;;;;;;;0.50;0.40;;;19.60;55.30;;;;;;5049367;28;20398;-69
2021/12/30 10:28:36;;;;;;;0.50;0.40;;;19.90;55.40;;;;;;5049376;28;20410;-69
2021/12/30 10:31:11;;;;;;;0.50;0.40;;;19.60;55.30;;;;;;5049393;28;20229;-69
2021/12/30 10:33:46;;;;;;;0.50;0.50;;;19.50;62.40;;;;;;5049114;28;20406;-69
2021/12/30 10:36:21;;;;;;;0.50;0.50;;;19.60;55.30;;;;;;5049405;28;20850;-69
2021/12/30 10:38:46;;;;;;;0.50;0.40;;;19.60;55.30;;;;;;5049458;28;20467;-69
2021/12/30 10:41:12;;;;;;;0.50;0.40;;;19.70;55.40;;;;;;5049597;28;20906;-69
2021/12/30 10:43:46;;;;;;;0.50;0.40;;;19.50;66.60;;;;;;5049392;28;20218;-69
2021/12/30 10:46:20;;;;;;;0.40;0.40;;;19.60;55.40;;;;;;5049364;28;20156;-69
2021/12/30 10:49:01;;;;;;;0.50;0.50;;;19.90;55.50;;;;;;5049179;28;20409;-69
2021/12/30 10:51:49;;;;;;;0.50;0.40;;;19.60;55.30;;;;;;5048776;28;20464;-69
2021/12/30 10:54:22;;;;;;;0.50;0.50;;;19.60;55.40;;;;;;5048441;28;20430;-69
2021/12/30 10:56:58;;;;;;;0.50;0.40;;;19.70;55.50;;;;;;5029184;28;20455;-69
2021/12/30 10:59:29;;;;;;;0.50;0.50;;;19.60;55.40;;;;;;5029360;28;20414;-69
2021/12/30 11:02:17;;;;;;;0.50;0.40;;;19.60;55.40;;;;;;5029597;28;20933;-69
2021/12/30 11:05:00;;;;;;;0.50;0.40;;;19.60;55.40;;;;;;5029260;28;20423;-69
2021/12/30 11:07:51;;;;;;;0.70;0.50;;;19.80;55.60;;;;;;5029487;28;20494;-69
2021/12/30 11:10:32;;;;;;;0.60;0.60;;;19.20;55.20;;;;;;5029128;28;20412;-69
2021/12/30 11:13:12;;;;;;;0.50;0.40;;;19.60;55.40;;;;;;5046618;28;20407;-69
2021/12/30 11:15:39;;;;;;;0.50;0.40;;;19.60;56.00;;;;;;5048883;28;20484;-69
2021/12/30 11:18:12;;;;;;;0.50;0.40;;;19.60;55.50;;;;;;5048875;28;20426;-69
2021/12/30 11:20:47;;;;;;;0.50;0.50;;;19.60;55.40;;;;;;5048762;28;20829;-69
2021/12/30 11:23:14;;;;;;;0.50;0.40;;;19.60;55.40;;;;;;5048631;28;20417;-69
2021/12/30 11:25:40;;;;;;;0.50;0.40;;;19.80;55.60;;;;;;5048641;28;20517;-69
2021/12/30 11:28:06;;;;;;;0.50;0.40;;;19.80;55.60;;;;;;5048838;28;20808;-69
2021/12/30 11:30:32;;;;;;;0.60;0.50;;;19.60;55.50;;;;;;5048046;28;20184;-69
2021/12/30 11:32:58;;;;;;;0.60;0.60;;;19.50;55.40;;;;;;5048357;28;20186;-69
2021/12/30 11:35:26;;;;;;;0.50;0.40;;;19.70;55.50;;;;;;5048364;28;20306;-69
2021/12/30 11:37:53;;;;;;;0.50;0.43;;;19.60;55.50;;;;;;5048679;28;20444;-69
2021/12/30 11:40:21;;;;;;;0.50;0.40;;;19.60;55.50;;;;;;5048531;28;20410;-69
2021/12/30 11:42:53;;;;;;;1.13;0.60;;;19.70;55.50;;;;;;5048406;28;20430;-69
2021/12/30 11:45:41;;;;;;;0.50;0.40;;;19.60;55.50;;;;;;5048597;28;20516;-69
2021/12/30 11:48:28;;;;;;;0.60;0.60;;;19.60;55.50;;;;;;5048614;28;20517;-69
2021/12/30 11:51:12;;;;;;;0.70;0.50;;;19.60;55.50;;;;;;5048460;28;20726;-69
2021/12/30 11:53:38;;;;;;;0.50;0.40;;;19.40;62.90;;;;;;5048056;28;20437;-69
2021/12/30 11:56:19;;;;;;;0.60;0.40;;;19.60;55.50;;;;;;5032635;28;20498;-69
2021/12/30 11:58:56;;;;;;;0.50;0.40;;;19.60;55.50;;;;;;5028667;28;20692;-69
2021/12/30 12:01:23;;;;;;;0.50;0.50;;;19.60;55.50;;;;;;5028559;28;20403;-69
2021/12/30 12:03:52;;;;;;;0.50;0.40;;;19.80;67.60;;;;;;5028223;28;20564;-69
2021/12/30 12:06:59;;;;;;;0.60;0.50;;;19.60;55.50;;;;;;5028365;28;20753;-69
2021/12/30 12:09:25;;;;;;;1.17;0.57;;;19.60;55.50;;;;;;4986787;28;20429;-69
2021/12/30 12:11:59;;;;;;;0.50;0.40;;;19.60;55.60;;;;;;4986859;28;20475;-69
2021/12/30 12:14:38;;;;;;;0.50;0.40;;;19.60;55.60;;;;;;5009602;28;20525;-69
2021/12/30 12:17:11;;;;;;;0.80;0.70;;;19.60;55.50;;;;;;5028458;28;20509;-69
2021/12/30 12:19:53;;;;;;;0.50;0.40;;;19.60;55.50;;;;;;5028462;28;20411;-69
2021/12/30 12:22:19;;;;;;;0.50;0.40;;;19.60;55.60;;;;;;5028123;28;20439;-69
2021/12/30 12:25:04;;;;;;;0.50;0.40;;;19.80;55.70;;;;;;5028375;28;20451;-69
2021/12/30 12:27:33;;;;;;;0.60;0.60;;;19.60;55.50;;;;;;5028285;28;20200;-69
2021/12/30 12:30:00;;;;;;;0.50;0.50;;;19.60;55.50;;;;;;5028088;28;20423;-69
2021/12/30 12:32:34;;;;;;;0.50;0.40;;;18.60;55.10;;;;;;5028058;28;20422;-69
2021/12/30 12:35:18;;;;;;;0.50;0.40;;;19.90;55.70;;;;;;5027767;28;20742;-69
2021/12/30 12:37:45;;;;;;;1.13;0.50;;;19.60;55.60;;;;;;5022585;28;20415;-69
2021/12/30 12:40:17;;;;;;;0.50;0.40;;;19.60;55.60;;;;;;5022525;28;20411;-69
2021/12/30 12:42:48;;;;;;;0.50;0.40;;;19.60;55.50;;;;;;5030303;28;20399;-69
2021/12/30 12:45:33;;;;;;;0.50;0.50;;;19.60;55.60;;;;;;5031631;28;20449;-69
2021/12/30 12:48:23;;;;;;;0.50;0.50;;;19.60;55.60;;;;;;5031441;28;20498;-68
2021/12/30 12:51:15;;;;;;;0.60;0.60;;;19.60;55.60;;;;;;5031739;28;20392;-69